createdAt,value
2019-02-21T00:01:53.345Z,10.40
2019-02-21T00:04:19.053Z,9.88
2019-02-21T00:06:44.714Z,9.20
2019-02-21T00:09:13.229Z,9.67
2019-02-21T00:11:38.924Z,9.63
2019-02-21T00:14:07.512Z,9.37
2019-02-21T00:16:33.501Z,8.55
2019-02-21T00:19:00.426Z,9.20
2019-02-21T00:21:26.092Z,8.65
2019-02-21T00:23:55.595Z,8.33
2019-02-21T00:26:21.290Z,8.30
2019-02-21T00:28:51.522Z,8.90
2019-02-21T00:31:17.523Z,8.50
2019-02-21T00:33:44.362Z,8.55
2019-02-21T00:36:10.023Z,9.20
2019-02-21T00:38:42.824Z,9.30
2019-02-21T00:41:08.520Z,9.15
2019-02-21T00:43:34.215Z,9.60
2019-02-21T00:46:00.233Z,10.83
2019-02-21T00:48:26.185Z,10.53
2019-02-21T00:50:51.902Z,10.33
2019-02-21T00:53:17.864Z,9.60
2019-02-21T00:55:46.728Z,9.77
2019-02-21T00:58:12.615Z,11.20
2019-02-21T01:00:46.621Z,10.83
2019-02-21T01:03:07.836Z,10.03
2019-02-21T01:05:36.291Z,8.93
2019-02-21T01:08:01.947Z,11.85
2019-02-21T01:10:30.646Z,9.40
2019-02-21T01:12:56.480Z,11.43
2019-02-21T01:15:24.367Z,11.10
2019-02-21T01:17:50.074Z,9.93
2019-02-21T01:20:15.764Z,10.30
2019-02-21T01:22:44.451Z,10.20
2019-02-21T01:25:10.132Z,11.25
2019-02-21T01:27:38.823Z,10.80
2019-02-21T01:30:05.224Z,11.28
2019-02-21T01:32:34.003Z,9.93
2019-02-21T01:34:59.689Z,8.18
2019-02-21T01:37:28.688Z,9.53
2019-02-21T01:39:54.368Z,9.60
2019-02-21T01:42:23.627Z,9.77
2019-02-21T01:44:49.311Z,8.08
2019-02-21T01:47:18.081Z,8.40
2019-02-21T01:49:43.860Z,9.33
2019-02-21T01:52:12.467Z,9.27
2019-02-21T01:54:38.148Z,10.55
2019-02-21T01:57:05.201Z,10.70
2019-02-21T01:59:30.882Z,9.83
2019-02-21T02:01:56.734Z,10.33
2019-02-21T02:04:22.931Z,9.90
2019-02-21T02:06:49.074Z,9.25
2019-02-21T02:09:17.834Z,10.37
2019-02-21T02:11:43.516Z,9.20
2019-02-21T02:14:12.238Z,9.77
2019-02-21T02:16:37.917Z,9.05
2019-02-21T02:19:06.728Z,9.53
2019-02-21T02:21:32.390Z,9.03
2019-02-21T02:24:00.663Z,8.80
2019-02-21T02:26:26.336Z,9.48
2019-02-21T02:28:55.978Z,11.03
2019-02-21T02:31:23.327Z,9.43
2019-02-21T02:33:50.698Z,9.68
2019-02-21T02:36:16.368Z,9.20
2019-02-21T02:38:42.339Z,9.20
2019-02-21T02:41:08.113Z,9.70
2019-02-21T02:43:33.885Z,8.97
2019-02-21T02:46:02.867Z,8.73
2019-02-21T02:48:28.849Z,9.33
2019-02-21T02:50:57.415Z,8.73
2019-02-21T02:53:23.360Z,10.35
2019-02-21T02:55:51.450Z,9.40
2019-02-21T02:58:17.096Z,8.78
2019-02-21T03:00:45.714Z,9.47
2019-02-21T03:03:11.380Z,9.60
2019-02-21T03:05:37.048Z,9.17
2019-02-21T03:08:05.849Z,9.57
2019-02-21T03:10:31.820Z,9.65
2019-02-21T03:13:00.729Z,9.70
2019-02-21T03:15:26.421Z,9.23
2019-02-21T03:17:55.130Z,10.73
2019-02-21T03:20:21.107Z,9.78
2019-02-21T03:22:49.835Z,9.60
2019-02-21T03:25:15.621Z,9.33
2019-02-21T03:27:44.161Z,9.77
2019-02-21T03:30:12.168Z,10.28
2019-02-21T03:32:37.905Z,10.05
2019-02-21T03:35:04.915Z,10.03
2019-02-21T03:37:33.340Z,8.80
2019-02-21T03:39:59.017Z,9.93
2019-02-21T03:42:27.846Z,9.53
2019-02-21T03:44:53.795Z,9.58
2019-02-21T03:47:20.811Z,10.13
2019-02-21T03:49:46.723Z,9.83
2019-02-21T03:52:12.660Z,9.33
2019-02-21T03:54:38.603Z,11.17
2019-02-21T03:57:04.369Z,9.40
2019-02-21T03:59:32.679Z,10.97
2019-02-21T04:02:05.365Z,10.70
2019-02-21T04:04:28.986Z,10.80
2019-02-21T04:06:54.692Z,11.50
2019-02-21T04:09:23.425Z,8.70
2019-02-21T04:11:49.106Z,9.65
2019-02-21T04:14:20.823Z,10.80
2019-02-21T04:16:46.211Z,9.23
2019-02-21T04:19:11.881Z,10.50
2019-02-21T04:21:37.850Z,10.67
2019-02-21T04:24:08.587Z,9.63
2019-02-21T04:26:34.234Z,10.95
2019-02-21T04:28:59.922Z,8.10
2019-02-21T04:31:25.647Z,9.63
2019-02-21T04:33:51.404Z,9.53
2019-02-21T04:36:23.095Z,9.70
2019-02-21T04:38:47.958Z,8.88
2019-02-21T04:41:13.654Z,9.60
2019-02-21T04:43:39.319Z,10.13
2019-02-21T04:46:08.012Z,9.47
2019-02-21T04:48:33.653Z,9.28
2019-02-21T04:51:03.879Z,8.60
2019-02-21T04:53:29.700Z,9.20
2019-02-21T04:55:58.412Z,10.10
2019-02-21T04:58:24.077Z,10.25
2019-02-21T05:00:52.534Z,9.10
2019-02-21T05:03:18.554Z,9.00
2019-02-21T05:05:44.236Z,10.17
2019-02-21T05:08:10.216Z,9.23
2019-02-21T05:10:36.155Z,10.58
2019-02-21T05:13:05.268Z,9.70
2019-02-21T05:15:31.235Z,8.90
2019-02-21T05:17:58.848Z,8.60
2019-02-21T05:20:24.519Z,9.25
2019-02-21T05:22:55.469Z,8.43
2019-02-21T05:25:21.177Z,9.10
2019-02-21T05:27:51.212Z,9.23
2019-02-21T05:30:18.783Z,7.75
2019-02-21T05:32:46.755Z,8.23
2019-02-21T05:35:14.314Z,9.08
2019-02-21T05:37:54.018Z,8.40
2019-02-21T05:40:30.755Z,10.10
2019-02-21T05:42:58.351Z,8.33
2019-02-21T05:45:38.160Z,9.03
2019-02-21T05:48:05.771Z,10.10
2019-02-21T05:50:33.608Z,9.35
2019-02-21T05:53:07.104Z,9.25
2019-02-21T05:55:34.914Z,10.00
2019-02-21T05:58:05.397Z,9.10
2019-02-21T06:03:21.514Z,8.53
2019-02-21T06:06:04.664Z,9.03
2019-02-21T06:08:44.674Z,8.75
2019-02-21T06:11:12.265Z,9.23
2019-02-21T06:13:39.861Z,8.90
2019-02-21T06:16:13.519Z,10.10
2019-02-21T06:18:47.222Z,8.73
2019-02-21T06:21:31.687Z,9.63
2019-02-21T06:24:02.003Z,8.70
2019-02-21T06:26:34.130Z,9.95
2019-02-21T06:29:04.606Z,10.40
2019-02-21T06:31:30.587Z,9.45
2019-02-21T06:33:56.246Z,10.40
2019-02-21T06:36:26.239Z,9.87
2019-02-21T06:38:52.081Z,9.08
2019-02-21T06:41:21.011Z,10.70
2019-02-21T06:43:46.684Z,9.68
2019-02-21T06:46:15.274Z,9.27
2019-02-21T06:48:40.969Z,9.00
2019-02-21T06:51:09.431Z,9.47
2019-02-21T06:53:35.112Z,11.00
2019-02-21T06:56:00.791Z,12.90
2019-02-21T06:58:26.682Z,16.57
2019-02-21T07:00:52.394Z,12.60
2019-02-21T07:03:21.404Z,11.30
2019-02-21T07:05:47.127Z,11.43
2019-02-21T07:08:14.318Z,10.57
2019-02-21T07:10:40.006Z,10.50
2019-02-21T07:13:09.451Z,11.03
2019-02-21T07:15:35.118Z,10.68
2019-02-21T07:18:05.490Z,10.83
2019-02-21T07:20:31.475Z,10.25
2019-02-21T07:23:00.619Z,10.23
2019-02-21T07:28:28.612Z,9.40
2019-02-21T07:30:54.525Z,10.30
2019-02-21T07:33:28.428Z,11.33
2019-02-21T07:35:47.813Z,10.53
2019-02-21T07:38:13.468Z,9.50
2019-02-21T07:40:39.149Z,11.20
2019-02-21T07:43:04.822Z,10.37
2019-02-21T07:45:30.778Z,10.73
2019-02-21T07:47:56.472Z,9.67
2019-02-21T07:50:23.220Z,10.93
2019-02-21T07:52:49.070Z,10.45
2019-02-21T07:55:14.745Z,11.43
2019-02-21T07:57:40.422Z,10.90
2019-02-21T08:00:09.918Z,11.37
2019-02-21T08:02:35.664Z,10.05
2019-02-21T08:05:02.350Z,10.33
2019-02-21T08:07:28.287Z,11.12
2019-02-21T08:09:53.940Z,10.20
2019-02-21T08:12:19.914Z,12.40
2019-02-21T08:14:45.623Z,11.10
2019-02-21T08:17:11.577Z,11.80
2019-02-21T08:19:37.574Z,11.50
2019-02-21T08:22:03.238Z,12.50
2019-02-21T08:24:28.922Z,11.80
2019-02-21T08:26:54.595Z,12.93
2019-02-21T08:29:20.915Z,12.40
2019-02-21T08:31:46.708Z,11.10
2019-02-21T08:34:16.969Z,11.90
2019-02-21T08:36:42.637Z,11.28
2019-02-21T08:39:08.417Z,11.60
2019-02-21T08:41:34.069Z,11.80
2019-02-21T08:43:59.740Z,12.40
2019-02-21T08:46:25.414Z,13.37
2019-02-21T08:48:51.106Z,13.10
2019-02-21T08:51:18.421Z,12.33
2019-02-21T08:53:44.315Z,12.60
2019-02-21T08:56:09.986Z,13.20
2019-02-21T08:58:35.679Z,11.70
2019-02-21T09:01:01.607Z,13.00
2019-02-21T09:03:27.293Z,14.30
2019-02-21T09:05:52.951Z,12.67
2019-02-21T09:08:20.372Z,15.60
2019-02-21T09:10:46.050Z,15.43
2019-02-21T09:13:14.737Z,17.23
2019-02-21T09:15:40.523Z,15.17
2019-02-21T09:18:10.701Z,14.30
2019-02-21T09:20:36.356Z,15.47
2019-02-21T09:23:02.075Z,15.53
2019-02-21T09:25:27.747Z,15.40
2019-02-21T09:27:53.682Z,15.27
2019-02-21T09:30:20.716Z,14.60
2019-02-21T09:32:46.752Z,13.90
2019-02-21T09:35:17.271Z,14.00
2019-02-21T09:37:43.059Z,15.20
2019-02-21T09:40:12.938Z,15.00
2019-02-21T09:42:38.632Z,17.37
2019-02-21T09:45:14.982Z,13.77
2019-02-21T09:47:40.788Z,13.53
2019-02-21T09:50:07.352Z,12.80
2019-02-21T09:52:33.295Z,12.47
2019-02-21T09:54:58.972Z,14.80
2019-02-21T09:57:24.924Z,13.40
2019-02-21T09:59:50.588Z,12.37
2019-02-21T10:02:16.540Z,12.30
2019-02-21T10:04:42.228Z,11.07
2019-02-21T10:07:08.139Z,13.20
2019-02-21T10:09:33.946Z,12.10
2019-02-21T10:12:01.034Z,12.23
2019-02-21T10:14:26.843Z,13.50
2019-02-21T10:16:55.966Z,13.13
2019-02-21T10:19:21.691Z,13.80
2019-02-21T10:21:49.826Z,11.73
2019-02-21T10:24:15.723Z,11.57
2019-02-21T10:26:48.752Z,11.17
2019-02-21T10:29:14.411Z,11.73
2019-02-21T10:31:40.078Z,11.93
2019-02-21T10:34:05.966Z,10.63
2019-02-21T10:36:31.891Z,11.27
2019-02-21T10:38:57.564Z,10.93
2019-02-21T10:41:23.231Z,11.73
2019-02-21T10:43:52.232Z,9.63
2019-02-21T10:46:18.162Z,9.90
2019-02-21T10:48:46.635Z,9.97
2019-02-21T10:51:12.420Z,8.97
2019-02-21T10:53:41.403Z,9.33
2019-02-21T10:56:07.352Z,8.80
2019-02-21T10:58:52.887Z,8.77
2019-02-21T11:01:18.831Z,8.30
2019-02-21T11:03:44.545Z,8.20
2019-02-21T11:06:10.207Z,8.70
2019-02-21T11:08:35.870Z,8.47
2019-02-21T11:11:01.823Z,8.90
2019-02-21T11:13:27.492Z,8.77
2019-02-21T11:15:53.189Z,8.83
2019-02-21T11:18:18.953Z,8.23
2019-02-21T11:20:44.914Z,9.67
2019-02-21T11:23:10.879Z,8.50
2019-02-21T11:25:36.545Z,9.70
2019-02-21T11:28:02.426Z,8.17
2019-02-21T11:30:28.195Z,8.60
2019-02-21T11:32:53.979Z,9.50
2019-02-21T11:35:22.871Z,9.00
2019-02-21T11:37:48.581Z,9.37
2019-02-21T11:40:16.245Z,8.43
2019-02-21T11:42:42.166Z,9.47
2019-02-21T11:45:12.771Z,8.50
2019-02-21T11:47:38.449Z,9.50
2019-02-21T11:50:05.926Z,8.80
2019-02-21T11:52:31.923Z,8.37
2019-02-21T11:54:57.588Z,8.37
2019-02-21T11:57:23.372Z,8.63
2019-02-21T11:59:49.316Z,10.10
2019-02-21T12:02:18.067Z,9.50
2019-02-21T12:04:44.039Z,10.20
2019-02-21T12:07:12.794Z,10.43
2019-02-21T12:09:38.812Z,10.30
2019-02-21T12:12:07.262Z,10.03
2019-02-21T12:14:32.953Z,10.80
2019-02-21T12:17:01.693Z,10.20
2019-02-21T12:19:27.792Z,9.83
2019-02-21T12:21:59.346Z,9.27
2019-02-21T12:24:24.425Z,9.40
2019-02-21T12:26:50.112Z,8.20
2019-02-21T12:29:15.776Z,9.20
2019-02-21T12:31:41.461Z,9.23
2019-02-21T12:34:07.305Z,8.87
2019-02-21T12:36:33.034Z,8.73
2019-02-21T12:38:58.886Z,8.03
2019-02-21T12:41:24.945Z,9.20
2019-02-21T12:43:51.033Z,9.50
2019-02-21T12:46:20.345Z,7.57
2019-02-21T12:48:46.030Z,8.50
2019-02-21T12:51:14.715Z,8.00
2019-02-21T12:53:40.400Z,8.00
2019-02-21T12:56:08.876Z,6.77
2019-02-21T12:58:34.569Z,7.10
2019-02-21T13:01:03.962Z,8.60
2019-02-21T13:03:29.635Z,6.80
2019-02-21T13:05:57.984Z,7.10
2019-02-21T13:08:23.916Z,7.20
2019-02-21T13:10:52.952Z,7.10
2019-02-21T13:13:18.632Z,7.53
2019-02-21T13:15:47.423Z,7.60
2019-02-21T13:18:16.106Z,6.40
2019-02-21T13:20:42.226Z,7.10
2019-02-21T13:23:07.991Z,7.43
2019-02-21T13:25:36.534Z,5.80
2019-02-21T13:28:02.243Z,7.20
2019-02-21T13:30:30.991Z,6.90
2019-02-21T13:32:56.955Z,7.47
2019-02-21T13:35:29.100Z,5.97
2019-02-21T13:37:50.181Z,6.37
2019-02-21T13:40:16.097Z,6.00
2019-02-21T13:42:44.977Z,5.63
2019-02-21T13:45:11.862Z,8.90
2019-02-21T13:47:40.447Z,6.50
2019-02-21T13:50:11.022Z,6.30
2019-02-21T13:52:36.705Z,6.93
2019-02-21T13:55:02.771Z,6.40
2019-02-21T13:57:28.443Z,6.43
2019-02-21T13:59:54.363Z,6.90
2019-02-21T14:02:23.018Z,6.60
2019-02-21T14:04:49.001Z,6.43
2019-02-21T14:07:17.763Z,7.27
2019-02-21T14:09:43.651Z,6.30
2019-02-21T14:12:12.614Z,8.70
2019-02-21T14:14:38.299Z,7.40
2019-02-21T14:17:03.994Z,7.07
2019-02-21T14:19:29.681Z,7.23
2019-02-21T14:21:55.638Z,7.40
2019-02-21T14:24:36.009Z,6.97
2019-02-21T14:26:52.161Z,8.13
2019-02-21T14:29:20.864Z,8.83
2019-02-21T14:31:46.577Z,7.33
2019-02-21T14:34:15.420Z,7.30
2019-02-21T14:36:41.218Z,6.67
2019-02-21T14:39:10.516Z,6.83
2019-02-21T14:41:35.426Z,6.70
2019-02-21T14:44:02.245Z,6.07
2019-02-21T14:46:27.921Z,6.57
2019-02-21T14:48:56.450Z,5.90
2019-02-21T14:51:22.129Z,5.80
2019-02-21T14:53:47.822Z,5.53
2019-02-21T14:56:16.267Z,5.43
2019-02-21T14:58:42.197Z,5.47
2019-02-21T15:01:09.120Z,5.17
2019-02-21T15:03:34.882Z,5.23
2019-02-21T15:06:04.836Z,5.07
2019-02-21T15:08:30.515Z,5.13
2019-02-21T15:10:59.223Z,5.27
2019-02-21T15:13:25.676Z,6.10
2019-02-21T15:15:54.707Z,6.23
2019-02-21T15:18:20.426Z,5.77
2019-02-21T15:20:47.794Z,4.70
2019-02-21T15:23:13.490Z,5.03
2019-02-21T15:25:42.558Z,5.03
2019-02-21T15:28:08.358Z,5.70
2019-02-21T15:30:34.081Z,6.57
2019-02-21T15:32:59.883Z,5.43
2019-02-21T15:35:25.861Z,5.57
2019-02-21T15:37:56.419Z,6.90
2019-02-21T15:40:22.155Z,5.10
2019-02-21T15:42:48.682Z,5.73
2019-02-21T15:45:26.096Z,6.70
2019-02-21T15:47:52.218Z,5.83
2019-02-21T15:50:19.951Z,5.60
2019-02-21T15:52:54.182Z,6.40
2019-02-21T15:55:21.960Z,6.10
2019-02-21T15:57:47.654Z,5.20
2019-02-21T16:00:14.649Z,6.77
2019-02-21T16:02:40.368Z,6.33
2019-02-21T16:05:06.615Z,6.43
2019-02-21T16:07:35.207Z,6.97
2019-02-21T16:10:01.129Z,7.50
2019-02-21T16:12:27.027Z,7.03
2019-02-21T16:14:52.908Z,6.07
2019-02-21T16:17:18.562Z,8.07
2019-02-21T16:19:44.217Z,7.03
2019-02-21T16:22:10.310Z,6.50
2019-02-21T16:24:38.011Z,7.50
2019-02-21T16:27:03.954Z,6.80
2019-02-21T16:29:29.639Z,6.37
2019-02-21T16:31:55.323Z,7.37
2019-02-21T16:34:21.012Z,8.13
2019-02-21T16:36:46.967Z,7.83
2019-02-21T16:39:15.597Z,8.43
2019-02-21T16:41:41.531Z,8.23
2019-02-21T16:44:07.271Z,8.00
2019-02-21T16:46:33.320Z,8.27
2019-02-21T16:48:59.298Z,7.50
2019-02-21T16:51:24.958Z,7.83
2019-02-21T16:53:50.643Z,7.37
2019-02-21T16:56:19.909Z,7.77
2019-02-21T16:58:45.555Z,7.80
2019-02-21T17:01:13.981Z,8.47
2019-02-21T17:03:39.677Z,8.00
2019-02-21T17:06:09.815Z,8.53
2019-02-21T17:08:33.240Z,8.43
2019-02-21T17:10:59.179Z,6.90
2019-02-21T17:13:26.133Z,7.87
2019-02-21T17:15:51.799Z,8.03
2019-02-21T17:18:21.445Z,7.70
2019-02-21T17:20:47.153Z,6.72
2019-02-21T17:23:22.870Z,7.30
2019-02-21T17:25:43.957Z,7.22
2019-02-21T17:28:12.729Z,6.70
2019-02-21T17:30:38.426Z,7.30
2019-02-21T17:33:07.442Z,8.20
2019-02-21T17:35:33.084Z,7.78
2019-02-21T17:38:01.534Z,9.03
2019-02-21T17:40:27.239Z,8.10
2019-02-21T17:42:54.443Z,8.70
2019-02-21T17:45:20.615Z,7.78
2019-02-21T17:47:49.248Z,8.03
2019-02-21T17:50:15.909Z,7.28
2019-02-21T17:52:44.797Z,6.10
2019-02-21T17:55:10.826Z,6.40
2019-02-21T17:57:37.073Z,7.70
2019-02-21T18:00:07.591Z,8.13
2019-02-21T18:02:33.284Z,8.68
2019-02-21T18:04:59.030Z,9.50
2019-02-21T18:07:35.831Z,12.73
2019-02-21T18:09:52.567Z,37.40
2019-02-21T18:12:18.543Z,20.70
2019-02-21T18:14:47.493Z,13.07
2019-02-21T18:17:13.170Z,16.30
2019-02-21T18:19:41.674Z,12.87
2019-02-21T18:22:07.513Z,13.60
2019-02-21T18:24:34.531Z,12.73
2019-02-21T18:27:00.483Z,14.38
2019-02-21T18:29:29.482Z,15.37
2019-02-21T18:31:55.143Z,15.03
2019-02-21T18:34:20.818Z,15.53
2019-02-21T18:36:46.858Z,17.73
2019-02-21T18:39:13.176Z,21.12
2019-02-21T18:41:41.959Z,19.50
2019-02-21T18:44:07.815Z,19.50
2019-02-21T18:46:36.282Z,18.40
2019-02-21T18:49:01.978Z,16.67
2019-02-21T18:51:30.587Z,16.10
2019-02-21T18:53:56.257Z,16.25
2019-02-21T18:56:24.787Z,14.70
2019-02-21T18:58:50.750Z,16.62
2019-02-21T19:01:20.415Z,13.70
2019-02-21T19:03:46.454Z,14.15
2019-02-21T19:06:15.191Z,14.83
2019-02-21T19:08:41.163Z,12.78
2019-02-21T19:11:06.854Z,13.30
2019-02-21T19:13:32.799Z,14.30
2019-02-21T19:15:58.546Z,13.90
2019-02-21T19:18:27.564Z,12.20
2019-02-21T19:20:53.264Z,12.63
2019-02-21T19:23:21.072Z,11.53
2019-02-21T19:25:46.777Z,10.93
2019-02-21T19:28:15.573Z,12.00
2019-02-21T19:30:43.602Z,13.25
2019-02-21T19:33:12.311Z,10.90
2019-02-21T19:35:38.273Z,12.53
2019-02-21T19:38:10.695Z,12.33
2019-02-21T19:40:35.405Z,11.22
2019-02-21T19:43:01.055Z,11.50
2019-02-21T19:45:27.064Z,12.90
2019-02-21T19:47:52.767Z,13.10
2019-02-21T19:50:18.710Z,13.50
2019-02-21T19:52:44.368Z,13.77
2019-02-21T19:55:12.926Z,13.10
2019-02-21T19:57:38.962Z,15.98
2019-02-21T20:00:10.082Z,16.35
2019-02-21T20:02:35.751Z,15.35
2019-02-21T20:05:01.795Z,17.53
2019-02-21T20:07:27.464Z,22.73
2019-02-21T20:09:56.140Z,19.00
2019-02-21T20:12:21.839Z,17.70
2019-02-21T20:14:51.053Z,15.63
2019-02-21T20:17:16.828Z,17.15
2019-02-21T20:19:45.740Z,16.33
2019-02-21T20:22:11.693Z,19.40
2019-02-21T20:24:37.380Z,16.33
2019-02-21T20:27:03.460Z,17.13
2019-02-21T20:29:29.090Z,15.05
2019-02-21T20:31:58.186Z,16.50
2019-02-21T20:34:23.876Z,16.12
2019-02-21T20:36:52.350Z,13.93
2019-02-21T20:39:20.086Z,17.10
2019-02-21T20:41:48.926Z,14.85
2019-02-21T20:44:14.611Z,16.10
2019-02-21T20:46:44.699Z,15.30
2019-02-21T20:49:10.379Z,14.78
2019-02-21T20:51:36.116Z,14.67
2019-02-21T20:54:01.793Z,16.13
2019-02-21T20:56:30.549Z,14.00
2019-02-21T20:58:56.229Z,14.10
2019-02-21T21:01:22.385Z,14.40
2019-02-21T21:03:48.307Z,13.50
2019-02-21T21:06:14.302Z,14.77
2019-02-21T21:08:46.431Z,13.10
2019-02-21T21:11:10.690Z,18.85
2019-02-21T21:13:39.262Z,20.53
2019-02-21T21:16:04.953Z,17.45
2019-02-21T21:18:33.392Z,16.37
2019-02-21T21:20:59.071Z,16.82
2019-02-21T21:23:27.684Z,15.30
2019-02-21T21:25:53.454Z,14.23
2019-02-21T21:28:22.240Z,15.37
2019-02-21T21:30:48.176Z,14.33
2019-02-21T21:33:16.639Z,14.30
2019-02-21T21:35:42.556Z,14.20
2019-02-21T21:38:08.228Z,14.67
2019-02-21T21:40:33.932Z,13.37
2019-02-21T21:42:59.579Z,15.10
2019-02-21T21:45:28.128Z,16.70
2019-02-21T21:47:54.202Z,16.32
2019-02-21T21:50:23.046Z,15.68
2019-02-21T21:52:48.709Z,14.85
2019-02-21T21:55:19.187Z,14.77
2019-02-21T21:57:44.853Z,14.07
2019-02-21T22:00:17.930Z,15.77
2019-02-21T22:02:43.324Z,14.33
2019-02-21T22:05:09.365Z,13.30
2019-02-21T22:07:35.259Z,14.80
2019-02-21T22:10:01.061Z,16.17
2019-02-21T22:12:26.727Z,16.10
2019-02-21T22:14:52.406Z,14.60
2019-02-21T22:17:18.390Z,15.83
2019-02-21T22:19:44.316Z,14.63
2019-02-21T22:22:13.284Z,15.17
2019-02-21T22:24:39.242Z,16.35
2019-02-21T22:27:07.592Z,16.13
2019-02-21T22:29:33.331Z,15.95
2019-02-21T22:32:03.792Z,16.43
2019-02-21T22:34:27.044Z,16.25
2019-02-21T22:36:52.697Z,17.30
2019-02-21T22:39:21.954Z,17.87
2019-02-21T22:41:47.628Z,18.57
2019-02-21T22:44:16.457Z,16.50
2019-02-21T22:46:42.426Z,16.20
2019-02-21T22:49:11.128Z,15.57
2019-02-21T22:51:36.801Z,15.25
2019-02-21T22:54:05.227Z,15.77
2019-02-21T22:56:30.896Z,15.75
2019-02-21T22:58:59.367Z,15.37
2019-02-21T23:01:26.599Z,14.75
2019-02-21T23:03:57.024Z,14.95
2019-02-21T23:06:30.953Z,15.20
2019-02-21T23:08:56.636Z,13.80
2019-02-21T23:11:22.329Z,15.57
2019-02-21T23:13:48.728Z,15.17
2019-02-21T23:16:14.812Z,14.43
2019-02-21T23:18:40.500Z,14.55
2019-02-21T23:21:06.194Z,12.40
2019-02-21T23:23:32.086Z,15.43
2019-02-21T23:25:57.736Z,13.93
2019-02-21T23:28:23.406Z,14.20
2019-02-21T23:30:49.364Z,14.17
2019-02-21T23:33:15.032Z,14.77
2019-02-21T23:35:44.038Z,15.00
2019-02-21T23:38:09.981Z,14.90
2019-02-21T23:40:39.075Z,14.17
2019-02-21T23:43:04.857Z,14.35
2019-02-21T23:45:34.418Z,14.63
2019-02-21T23:48:00.314Z,15.05
2019-02-21T23:50:28.814Z,14.53
2019-02-21T23:52:54.502Z,13.70
2019-02-21T23:55:23.253Z,14.17
2019-02-21T23:57:48.933Z,15.38
